• Join FlightAware (Why Join?)
  • Login
  • US Flag GB Flag 
17:35 EDT


 

Airport Tracker/Info


-or-


 

Live Flight TrackerFlight Track Log ✈ SWA1787 ✈ 15-Jun-2013 ✈ KTPA - KFLL

Flight Track Log - Related Links

Times and Time Zones

All times are in EDT time to prevent confusion due to time zone crossing. See the SWA1787 flight status page for this flight to view local times or setup timezone preferences in your user account.

Time Position Orientation Groundspeed Altitude Reporting Facility
EDT Latitude Longitude Course Direction KTS MPH feet Rate Location/Type
19:45 28.0500 -82.5333 360° North 198 228 3,700  Level Tampa TRACON
19:47 28.0072 -82.6317 244° Southwest 172 198 9,600 2,700 Climbing Miami Center
19:48 27.9247 -82.6606 197° South 247 284 11,900 2,340 Climbing Miami Center
19:49 27.8317 -82.6933 197° South 290 334 14,300 2,700 Climbing Miami Center
19:50 27.7367 -82.7236 196° South 337 388 17,400 2,940 Climbing Miami Center
19:51 27.6322 -82.7253 181° South 373 429 20,200 2,700 Climbing Miami Center
19:52 27.5319 -82.6733 155° Southeast 393 452 22,900 2,400 Climbing Miami Center
19:53 27.4411 -82.6008 145° Southeast 386 444 25,000 1,020 Climbing Miami Center
19:54 27.3514 -82.5497 153° Southeast 398 458 25,000  Level Miami Center
19:55 27.2408 -82.4906 155° Southeast 404 465 25,000  Level Miami Center
19:56 27.1442 -82.4578 163° South 397 457 25,000 -360 Level Miami Center
19:57 27.0525 -82.3997 151° Southeast 398 458 24,300 -540 Descending Miami Center
19:58 26.9794 -82.2914 127° Southeast 381 438 24,000 -180 Descending Miami Center
19:59 26.9139 -82.1978 128° Southeast 381 438 24,000  Level Miami Center
20:00 26.8506 -82.1017 126° Southeast 380 437 24,000 -540 Level Miami Center
20:01 26.7875 -81.9989 124° Southeast 391 450 23,000 -1,020 Descending Miami Center
20:02 26.7197 -81.9122 131° Southeast 385 443 22,000 -1,020 Descending Miami Center
20:03 26.6494 -81.8278 133° Southeast 374 430 21,000 -1,020 Descending Miami Center
20:04 26.5833 -81.7414 131° Southeast 369 425 20,000 -1,020 Descending Miami Center
20:05 26.5172 -81.6575 131° Southeast 364 419 19,000 -600 Descending Miami Center
20:06 26.4594 -81.5764 128° Southeast 364 419 18,800 -600 Descending Miami Center
20:07 26.4081 -81.4839 122° Southeast 364 419 17,800 -1,500 Descending Miami Center
20:08 26.3589 -81.3939 121° Southeast 352 405 15,900 -1,800 Descending Miami Center
20:09 26.3069 -81.3108 125° Southeast 337 388 14,200 -1,740 Descending Miami Center
20:10 26.2594 -81.2303 123° Southeast 332 382 12,500 -1,740 Descending Miami Center
20:11 26.2056 -81.1472 126° Southeast 308 354 10,900 -1,320 Descending Miami Center
20:12 26.1678 -81.0742 120° Southeast 309 356 9,900 -1,200 Descending Miami Center
20:13 26.1242 -81.0008 124° Southeast 294 338 8,500 -1,260 Descending Miami Center
20:14 26.0997 -80.9031 106° East 282 325 7,300 -1,080 Descending Miami Center
20:15 26.0994 -80.8311 90° East 270 311 6,400 -720 Descending Miami Center
20:16 26.0933 -80.7456 95° East 275 316 6,000 -240 Descending Miami Center
20:17 26.0872 -80.6597 95° East 275 316 6,000  Level Miami Center
20:18 26.0811 -80.5739 95° East 275 316 6,000 -120 Level Miami Center
20:19 26.0792 -80.4883 91° East 275 316 5,800 -600 Descending Miami Center
20:20 26.0792 -80.4050 90° East 269 310 4,800 -960 Descending Miami Center
20:21 26.0747 -80.3264 94° East 197 227 3,900 -1,020 Descending Miami Center
20:22 26.0761 -80.2708 88° East 152 175 2,600 -1,380 Descending Miami Center
20:23 26.0750 -80.2222 91° East 150 173 1,000 -1,200 Descending Miami Center
20:24 26.0739 -80.1828 92° East 138 159 300 -780 Descending Miami Center
20:26 26.0667 -80.1500 180° South  Level FlightAware Approximate